createdAt,value
2019-05-30T00:00:36.164Z,85.59
2019-05-30T00:03:02.393Z,85.75
2019-05-30T00:05:28.582Z,85.46
2019-05-30T00:07:54.582Z,85.18
2019-05-30T00:10:20.694Z,85.29
2019-05-30T00:12:46.874Z,85.48
2019-05-30T00:15:13.034Z,85.21
2019-05-30T00:17:39.055Z,84.77
2019-05-30T00:20:06.141Z,84.81
2019-05-30T00:22:32.423Z,84.84
2019-05-30T00:24:58.440Z,84.79
2019-05-30T00:27:24.483Z,84.64
2019-05-30T00:29:50.591Z,84.56
2019-05-30T00:32:16.590Z,84.62
2019-05-30T00:34:42.600Z,84.37
2019-05-30T00:37:08.705Z,84.56
2019-05-30T00:39:34.744Z,84.77
2019-05-30T00:42:01.971Z,84.11
2019-05-30T00:44:28.193Z,83.80
2019-05-30T00:46:54.196Z,83.96
2019-05-30T00:49:20.217Z,83.97
2019-05-30T00:51:46.321Z,84.13
2019-05-30T00:54:12.369Z,84.24
2019-05-30T00:56:38.495Z,84.17
2019-05-30T00:59:04.885Z,84.04
2019-05-30T01:01:31.107Z,84.08
2019-05-30T01:03:57.105Z,84.14
2019-05-30T01:06:23.221Z,83.82
2019-05-30T01:08:49.370Z,83.99
2019-05-30T01:11:15.679Z,83.94
2019-05-30T01:13:41.692Z,83.92
2019-05-30T01:16:07.801Z,83.94
2019-05-30T01:18:33.937Z,84.09
2019-05-30T01:21:01.214Z,84.13
2019-05-30T01:23:27.484Z,84.05
2019-05-30T01:25:53.490Z,84.04
2019-05-30T01:28:19.431Z,84.17
2019-05-30T01:30:58.843Z,83.93
2019-05-30T01:33:13.567Z,83.96
2019-05-30T01:35:39.669Z,83.72
2019-05-30T01:38:06.091Z,83.54
2019-05-30T01:40:32.229Z,83.59
2019-05-30T01:42:58.206Z,83.40
2019-05-30T01:45:24.108Z,83.44
2019-05-30T01:47:50.020Z,83.29
2019-05-30T01:50:16.243Z,83.16
2019-05-30T01:52:42.244Z,83.14
2019-05-30T01:55:09.582Z,83.30
2019-05-30T01:57:36.179Z,83.33
2019-05-30T02:00:19.893Z,83.33
2019-05-30T02:02:36.169Z,83.25
2019-05-30T02:05:03.462Z,82.91
2019-05-30T02:07:30.098Z,83.01
2019-05-30T02:09:56.094Z,82.75
2019-05-30T02:12:22.134Z,82.23
2019-05-30T02:14:48.246Z,82.71
2019-05-30T02:17:14.248Z,82.64
2019-05-30T02:19:40.261Z,82.75
2019-05-30T02:22:06.372Z,82.94
2019-05-30T02:24:32.513Z,82.99
2019-05-30T02:26:59.973Z,82.92
2019-05-30T02:29:26.105Z,83.26
2019-05-30T02:31:52.309Z,83.09
2019-05-30T02:34:18.352Z,83.23
2019-05-30T02:36:44.475Z,83.26
2019-05-30T02:39:11.933Z,83.35
2019-05-30T02:41:38.403Z,83.45
2019-05-30T02:44:05.539Z,83.24
2019-05-30T02:46:32.257Z,83.28
2019-05-30T02:48:59.735Z,83.53
2019-05-30T02:51:26.193Z,83.65
2019-05-30T02:53:52.246Z,83.78
2019-05-30T02:56:18.349Z,83.67
2019-05-30T02:58:44.498Z,83.41
2019-05-30T03:01:11.943Z,83.57
2019-05-30T03:03:38.674Z,83.34
2019-05-30T03:06:06.931Z,83.25
2019-05-30T03:08:32.768Z,83.25
2019-05-30T03:10:58.878Z,83.34
2019-05-30T03:13:25.075Z,83.36
2019-05-30T03:15:51.546Z,83.44
2019-05-30T03:18:17.650Z,83.48
2019-05-30T03:20:43.958Z,83.30
2019-05-30T03:23:12.132Z,83.04
2019-05-30T03:25:38.268Z,83.05
2019-05-30T03:28:05.221Z,82.94
2019-05-30T03:30:32.393Z,83.03
2019-05-30T03:33:07.563Z,83.03
2019-05-30T03:35:29.844Z,82.87
2019-05-30T03:37:54.507Z,82.85
2019-05-30T03:40:22.814Z,82.78
2019-05-30T03:42:48.821Z,83.08
2019-05-30T03:45:16.605Z,83.61
2019-05-30T03:47:52.356Z,83.81
2019-05-30T03:50:21.677Z,83.52
2019-05-30T03:52:47.804Z,83.55
2019-05-30T03:55:17.561Z,83.44
2019-05-30T03:57:47.268Z,83.44
2019-05-30T04:00:18.574Z,83.26
2019-05-30T04:02:59.277Z,83.39
2019-05-30T04:05:43.874Z,83.54
2019-05-30T04:08:12.346Z,83.63
2019-05-30T04:10:40.972Z,83.72
2019-05-30T04:13:19.694Z,83.68
2019-05-30T04:15:45.751Z,83.56
2019-05-30T04:18:13.827Z,84.13
2019-05-30T04:20:39.633Z,83.93
2019-05-30T04:23:05.662Z,83.99
2019-05-30T04:25:31.769Z,83.91
2019-05-30T04:27:57.813Z,83.81
2019-05-30T04:30:23.985Z,83.71
2019-05-30T04:32:50.779Z,83.76
2019-05-30T04:35:18.789Z,83.94
2019-05-30T04:37:44.826Z,83.95
2019-05-30T04:40:13.263Z,83.92
2019-05-30T04:42:39.496Z,83.86
2019-05-30T04:45:06.101Z,83.70
2019-05-30T04:47:32.210Z,83.88
2019-05-30T04:49:58.121Z,83.75
2019-05-30T04:52:25.063Z,83.72
2019-05-30T04:54:51.289Z,83.90
2019-05-30T04:57:19.106Z,83.91
2019-05-30T04:59:45.134Z,83.81
2019-05-30T05:02:11.538Z,83.74
2019-05-30T05:04:39.066Z,83.66
2019-05-30T05:07:05.080Z,83.86
2019-05-30T05:09:31.114Z,83.74
2019-05-30T05:11:57.118Z,83.94
2019-05-30T05:14:23.130Z,84.07
2019-05-30T05:16:49.051Z,84.12
2019-05-30T05:19:15.166Z,83.86
2019-05-30T05:21:41.061Z,83.79
2019-05-30T05:24:07.066Z,83.77
2019-05-30T05:26:33.070Z,83.96
2019-05-30T05:28:58.975Z,83.84
2019-05-30T05:31:24.978Z,83.93
2019-05-30T05:33:56.798Z,83.86
2019-05-30T05:36:18.928Z,83.62
2019-05-30T05:38:44.910Z,83.83
2019-05-30T05:41:11.018Z,83.72
2019-05-30T05:43:36.931Z,83.68
2019-05-30T05:46:03.044Z,83.84
2019-05-30T05:48:29.092Z,84.17
2019-05-30T05:50:54.999Z,84.02
2019-05-30T05:53:21.004Z,84.18
2019-05-30T05:55:46.911Z,84.20
2019-05-30T05:58:12.943Z,84.21
2019-05-30T06:00:38.932Z,84.33
2019-05-30T06:03:04.942Z,84.22
2019-05-30T06:05:30.958Z,84.41
2019-05-30T06:07:57.071Z,84.17
2019-05-30T06:10:24.315Z,84.35
2019-05-30T06:12:50.241Z,84.21
2019-05-30T06:15:16.842Z,84.00
2019-05-30T06:17:43.013Z,83.80
2019-05-30T06:20:09.426Z,83.88
2019-05-30T06:22:35.366Z,84.04
2019-05-30T06:25:04.302Z,84.20
2019-05-30T06:27:30.202Z,84.05
2019-05-30T06:29:56.220Z,84.26
2019-05-30T06:32:22.913Z,83.96
2019-05-30T06:34:49.065Z,84.31
2019-05-30T06:37:15.184Z,83.95
2019-05-30T06:39:41.306Z,84.12
2019-05-30T06:42:07.316Z,84.54
2019-05-30T06:44:33.617Z,84.29
2019-05-30T06:46:59.619Z,83.31
2019-05-30T06:49:26.806Z,83.51
2019-05-30T06:51:52.963Z,83.36
2019-05-30T06:54:21.455Z,83.64
2019-05-30T06:56:47.931Z,83.49
2019-05-30T06:59:14.037Z,83.38
2019-05-30T07:01:40.085Z,83.17
2019-05-30T07:04:06.433Z,83.36
2019-05-30T07:06:33.748Z,83.33
2019-05-30T07:09:00.014Z,83.52
2019-05-30T07:11:26.792Z,83.94
2019-05-30T07:13:53.094Z,83.57
2019-05-30T07:16:19.203Z,83.47
2019-05-30T07:18:45.235Z,83.33
2019-05-30T07:21:11.250Z,83.22
2019-05-30T07:23:39.566Z,83.39
2019-05-30T07:26:05.406Z,84.10
2019-05-30T07:28:32.035Z,83.78
2019-05-30T07:30:58.238Z,84.06
2019-05-30T07:33:24.352Z,83.79
2019-05-30T07:35:50.375Z,83.38
2019-05-30T07:38:16.478Z,83.41
2019-05-30T07:40:42.377Z,83.37
2019-05-30T07:43:08.489Z,83.37
2019-05-30T07:45:35.195Z,83.01
2019-05-30T07:48:01.433Z,83.03
2019-05-30T07:50:28.365Z,82.88
2019-05-30T07:52:54.579Z,82.92
2019-05-30T07:55:20.686Z,82.44
2019-05-30T07:57:46.822Z,82.48
2019-05-30T08:00:14.224Z,82.29
2019-05-30T08:02:40.337Z,82.39
2019-05-30T08:05:22.815Z,83.23
2019-05-30T08:07:35.142Z,83.90
2019-05-30T08:10:02.724Z,83.98
2019-05-30T08:12:30.004Z,84.09
2019-05-30T08:14:56.148Z,83.88
2019-05-30T08:17:22.480Z,83.82
2019-05-30T08:19:48.383Z,83.56
2019-05-30T08:22:14.399Z,83.19
2019-05-30T08:24:40.519Z,83.39
2019-05-30T08:27:06.716Z,83.23
2019-05-30T08:29:32.716Z,83.28
2019-05-30T08:31:58.821Z,83.33
2019-05-30T08:34:24.829Z,83.39
2019-05-30T08:36:50.744Z,83.05
2019-05-30T08:39:16.767Z,82.90
2019-05-30T08:41:42.772Z,82.62
2019-05-30T08:44:08.678Z,82.25
2019-05-30T08:46:35.835Z,82.59
2019-05-30T08:49:02.072Z,82.65
2019-05-30T08:51:28.071Z,82.13
2019-05-30T08:53:53.987Z,82.24
2019-05-30T08:56:20.127Z,82.52
2019-05-30T08:58:46.035Z,82.80
2019-05-30T09:01:12.089Z,82.81
2019-05-30T09:03:38.554Z,83.11
2019-05-30T09:06:05.017Z,83.29
2019-05-30T09:08:31.124Z,83.15
2019-05-30T09:10:57.139Z,83.58
2019-05-30T09:13:23.264Z,83.96
2019-05-30T09:15:49.400Z,84.02
2019-05-30T09:18:15.511Z,83.24
2019-05-30T09:20:42.007Z,83.71
2019-05-30T09:23:09.431Z,83.82
2019-05-30T09:25:35.535Z,83.96
2019-05-30T09:28:01.648Z,83.88
2019-05-30T09:30:27.749Z,84.05
2019-05-30T09:32:53.702Z,83.45
2019-05-30T09:35:20.108Z,83.55
2019-05-30T09:37:47.619Z,84.02
2019-05-30T09:40:15.235Z,84.28
2019-05-30T09:42:44.133Z,84.22
2019-05-30T09:45:10.223Z,84.56
2019-05-30T09:47:36.247Z,84.47
2019-05-30T09:50:06.233Z,84.39
2019-05-30T09:52:32.258Z,84.29
2019-05-30T09:54:58.259Z,84.55
2019-05-30T09:57:24.169Z,84.25
2019-05-30T09:59:50.514Z,84.08
2019-05-30T10:02:16.620Z,84.24
2019-05-30T10:04:44.046Z,84.56
2019-05-30T10:07:10.566Z,84.13
2019-05-30T10:09:36.698Z,84.79
2019-05-30T10:12:02.934Z,84.53
2019-05-30T10:14:29.044Z,84.93
2019-05-30T10:16:57.748Z,85.22
2019-05-30T10:19:23.126Z,84.82
2019-05-30T10:21:51.720Z,84.52
2019-05-30T10:24:17.886Z,85.07
2019-05-30T10:26:45.591Z,85.03
2019-05-30T10:29:12.067Z,85.15
2019-05-30T10:31:38.189Z,84.42
2019-05-30T10:34:04.708Z,84.09
2019-05-30T10:36:43.346Z,84.22
2019-05-30T10:38:58.868Z,84.51
2019-05-30T10:41:26.393Z,84.16
2019-05-30T10:43:53.169Z,84.50
2019-05-30T10:46:19.303Z,83.85
2019-05-30T10:48:47.275Z,84.16
2019-05-30T10:51:13.324Z,84.31
2019-05-30T10:53:39.336Z,83.60
2019-05-30T10:56:05.457Z,84.35
2019-05-30T10:58:31.367Z,84.71
2019-05-30T11:00:57.980Z,84.61
2019-05-30T11:03:25.647Z,84.83
2019-05-30T11:05:55.358Z,84.86
2019-05-30T11:08:25.000Z,84.85
2019-05-30T11:10:51.111Z,85.16
2019-05-30T11:13:19.247Z,85.72
2019-05-30T11:15:45.457Z,85.46
2019-05-30T11:18:11.770Z,85.71
2019-05-30T11:20:37.993Z,85.26
2019-05-30T11:23:04.376Z,85.13
2019-05-30T11:25:31.684Z,85.21
2019-05-30T11:27:58.837Z,84.77
2019-05-30T11:30:25.219Z,84.38
2019-05-30T11:32:51.213Z,85.49
2019-05-30T11:35:17.346Z,85.79
2019-05-30T11:37:43.494Z,86.13
2019-05-30T11:40:10.002Z,85.99
2019-05-30T11:42:36.044Z,85.98
2019-05-30T11:45:05.440Z,85.47
2019-05-30T11:47:31.447Z,85.58
2019-05-30T11:49:57.755Z,85.44
2019-05-30T11:52:23.998Z,85.12
2019-05-30T11:54:50.051Z,85.40
2019-05-30T11:57:16.052Z,85.32
2019-05-30T11:59:42.065Z,84.61
2019-05-30T12:02:08.302Z,85.22
2019-05-30T12:04:34.200Z,84.41
2019-05-30T12:07:00.917Z,85.05
2019-05-30T12:09:26.919Z,84.67
2019-05-30T12:11:55.154Z,85.58
2019-05-30T12:14:21.643Z,85.36
2019-05-30T12:16:47.722Z,85.06
2019-05-30T12:19:13.871Z,85.14
2019-05-30T12:21:39.989Z,85.21
2019-05-30T12:24:06.100Z,84.45
2019-05-30T12:26:33.957Z,85.31
2019-05-30T12:29:00.209Z,85.21
2019-05-30T12:31:26.318Z,85.31
2019-05-30T12:33:52.392Z,85.03
2019-05-30T12:36:18.455Z,84.39
2019-05-30T12:38:44.467Z,84.85
2019-05-30T12:41:10.475Z,84.15
2019-05-30T12:43:36.596Z,84.06
2019-05-30T12:46:03.310Z,84.39
2019-05-30T12:48:29.432Z,84.71
2019-05-30T12:50:55.552Z,84.62
2019-05-30T12:53:21.662Z,84.47
2019-05-30T12:56:24.807Z,83.69
2019-05-30T12:58:50.842Z,84.15
2019-05-30T13:01:16.851Z,84.10
2019-05-30T13:03:42.980Z,84.58
2019-05-30T13:06:09.196Z,84.66
2019-05-30T13:08:35.202Z,84.29
2019-05-30T13:11:01.827Z,84.55
2019-05-30T13:13:28.204Z,84.08
2019-05-30T13:15:54.606Z,83.85
2019-05-30T13:18:20.856Z,84.58
2019-05-30T13:20:46.971Z,84.77
2019-05-30T13:23:13.125Z,85.01
2019-05-30T13:25:39.239Z,84.77
2019-05-30T13:28:08.107Z,84.83
2019-05-30T13:30:33.346Z,85.13
2019-05-30T13:33:00.702Z,84.97
2019-05-30T13:35:26.967Z,83.60
2019-05-30T13:37:52.872Z,83.38
2019-05-30T13:40:24.997Z,83.16
2019-05-30T13:42:47.394Z,83.49
2019-05-30T13:45:13.700Z,83.71
2019-05-30T13:47:39.809Z,84.20
2019-05-30T13:50:12.727Z,83.70
2019-05-30T13:52:36.563Z,84.24
2019-05-30T13:55:05.405Z,83.64
2019-05-30T13:57:31.407Z,84.03
2019-05-30T13:59:57.346Z,84.18
2019-05-30T14:02:23.286Z,83.66
2019-05-30T14:04:49.414Z,83.95
2019-05-30T14:07:15.452Z,84.27
2019-05-30T14:09:41.385Z,84.16
2019-05-30T14:12:08.613Z,83.93
2019-05-30T14:14:34.860Z,84.63
2019-05-30T14:17:00.948Z,84.80
2019-05-30T14:19:26.995Z,84.26
2019-05-30T14:21:52.896Z,84.38
2019-05-30T14:24:18.964Z,84.59
2019-05-30T14:26:44.862Z,84.05
2019-05-30T14:29:11.952Z,84.43
2019-05-30T14:31:38.261Z,84.83
2019-05-30T14:34:04.394Z,84.05
2019-05-30T14:36:30.560Z,83.77
2019-05-30T14:38:58.743Z,84.00
2019-05-30T14:41:24.276Z,84.31
2019-05-30T14:43:50.409Z,84.13
2019-05-30T14:46:16.746Z,83.87
2019-05-30T14:48:43.070Z,83.75
2019-05-30T14:51:09.173Z,83.79
2019-05-30T14:53:35.192Z,84.14
2019-05-30T14:56:01.087Z,84.07
2019-05-30T14:58:27.227Z,83.91
2019-05-30T15:00:53.245Z,84.01
2019-05-30T15:03:19.280Z,84.26
2019-05-30T15:05:45.384Z,84.50
2019-05-30T15:08:12.357Z,84.20
2019-05-30T15:10:38.527Z,84.27
2019-05-30T15:13:05.462Z,84.30
2019-05-30T15:15:31.583Z,84.28
2019-05-30T15:17:57.619Z,84.02
2019-05-30T15:20:24.634Z,83.66
2019-05-30T15:22:50.649Z,83.70
2019-05-30T15:25:18.054Z,83.96
2019-05-30T15:27:44.367Z,83.73
2019-05-30T15:30:12.683Z,83.70
2019-05-30T15:32:39.033Z,83.51
2019-05-30T15:35:06.636Z,83.47
2019-05-30T15:37:32.921Z,83.44
2019-05-30T15:39:59.066Z,83.33
2019-05-30T15:42:25.064Z,83.44
2019-05-30T15:44:50.971Z,83.50
2019-05-30T15:47:18.364Z,83.39
2019-05-30T15:49:44.438Z,83.14
2019-05-30T15:52:11.644Z,83.07
2019-05-30T15:54:38.094Z,82.92
2019-05-30T15:57:04.245Z,83.15
2019-05-30T15:59:30.253Z,83.44
2019-05-30T16:01:56.397Z,83.29
2019-05-30T16:04:22.411Z,83.31
2019-05-30T16:06:48.544Z,83.63
2019-05-30T16:09:14.669Z,83.74
2019-05-30T16:11:40.590Z,83.56
2019-05-30T16:14:06.664Z,83.53
2019-05-30T16:16:39.326Z,83.62
2019-05-30T16:19:14.984Z,83.65
2019-05-30T16:21:28.526Z,83.28
2019-05-30T16:23:54.570Z,83.03
2019-05-30T16:26:21.958Z,82.85
2019-05-30T16:28:48.017Z,83.00
2019-05-30T16:31:14.025Z,83.45
2019-05-30T16:33:39.930Z,83.36
2019-05-30T16:36:05.960Z,83.25
2019-05-30T16:38:31.878Z,83.67
2019-05-30T16:40:57.879Z,83.71
2019-05-30T16:43:23.886Z,83.77
2019-05-30T16:45:49.891Z,84.05
2019-05-30T16:48:16.328Z,84.12
2019-05-30T16:50:42.356Z,84.23
2019-05-30T16:53:08.489Z,84.25
2019-05-30T16:55:34.600Z,84.25
2019-05-30T16:58:00.502Z,84.56
2019-05-30T17:00:26.910Z,84.75
2019-05-30T17:02:53.012Z,85.22
2019-05-30T17:05:19.219Z,85.59
2019-05-30T17:07:48.404Z,85.90
2019-05-30T17:10:23.503Z,86.23
2019-05-30T17:12:41.823Z,86.31
2019-05-30T17:15:08.522Z,86.54
2019-05-30T17:17:34.520Z,86.99
2019-05-30T17:20:00.641Z,87.14
2019-05-30T17:22:29.375Z,87.20
2019-05-30T17:24:54.738Z,87.84
2019-05-30T17:27:20.732Z,87.39
2019-05-30T17:29:46.765Z,87.61
2019-05-30T17:32:12.761Z,87.39
2019-05-30T17:34:38.868Z,87.11
2019-05-30T17:37:04.975Z,87.00
2019-05-30T17:39:31.099Z,87.12
2019-05-30T17:41:57.106Z,87.19
2019-05-30T17:44:23.020Z,87.17
2019-05-30T17:46:48.925Z,87.11
2019-05-30T17:49:15.064Z,86.87
2019-05-30T17:51:41.108Z,86.64
2019-05-30T17:54:07.210Z,86.58
2019-05-30T17:56:33.239Z,86.45
2019-05-30T17:58:59.348Z,86.53
2019-05-30T18:01:26.315Z,86.38
2019-05-30T18:03:52.380Z,86.15
2019-05-30T18:06:18.424Z,86.11
2019-05-30T18:08:44.539Z,85.93
2019-05-30T18:11:10.548Z,85.69
2019-05-30T18:13:36.509Z,85.67
2019-05-30T18:16:02.598Z,86.11
2019-05-30T18:18:29.345Z,86.12
2019-05-30T18:20:55.407Z,86.12
2019-05-30T18:23:21.567Z,85.78
2019-05-30T18:25:47.507Z,85.39
2019-05-30T18:28:13.534Z,85.67
2019-05-30T18:30:42.445Z,86.27
2019-05-30T18:33:08.760Z,86.60
2019-05-30T18:35:34.770Z,86.51
2019-05-30T18:38:01.965Z,86.36
2019-05-30T18:40:31.023Z,86.51
2019-05-30T18:42:57.140Z,87.08
2019-05-30T18:45:35.881Z,86.89
2019-05-30T18:48:01.988Z,86.91
2019-05-30T18:50:29.292Z,86.76
2019-05-30T18:52:55.353Z,86.73
2019-05-30T18:55:21.459Z,87.04
2019-05-30T18:57:47.472Z,87.00
2019-05-30T19:00:16.129Z,86.83
2019-05-30T19:02:41.439Z,86.71
2019-05-30T19:05:07.552Z,86.53
2019-05-30T19:07:33.581Z,86.90
2019-05-30T19:09:59.730Z,87.18
2019-05-30T19:12:25.954Z,87.07
2019-05-30T19:14:52.063Z,86.86
2019-05-30T19:17:18.067Z,86.86
2019-05-30T19:19:44.202Z,87.09
2019-05-30T19:22:10.207Z,86.84
2019-05-30T19:24:36.249Z,86.58
2019-05-30T19:27:02.376Z,86.46
2019-05-30T19:29:28.954Z,86.50
2019-05-30T19:31:54.909Z,86.29
2019-05-30T19:34:20.937Z,85.98
2019-05-30T19:36:46.946Z,85.76
2019-05-30T19:39:13.079Z,85.53
2019-05-30T19:41:53.811Z,85.42
2019-05-30T19:44:07.113Z,85.34
2019-05-30T19:46:34.214Z,85.33
2019-05-30T19:49:00.262Z,85.30
2019-05-30T19:51:26.277Z,85.43
2019-05-30T19:53:52.282Z,85.44
2019-05-30T19:56:18.413Z,85.25
2019-05-30T19:58:44.528Z,85.22
2019-05-30T20:01:10.556Z,85.18
2019-05-30T20:03:44.740Z,85.10
2019-05-30T20:06:04.558Z,85.06
2019-05-30T20:08:45.711Z,85.04
2019-05-30T20:10:58.658Z,84.96
2019-05-30T20:13:24.763Z,84.93
2019-05-30T20:15:50.802Z,85.03
2019-05-30T20:18:16.715Z,85.28
2019-05-30T20:20:54.081Z,85.12
2019-05-30T20:23:10.750Z,85.00
2019-05-30T20:25:40.748Z,84.90
2019-05-30T20:28:04.787Z,84.89
2019-05-30T20:30:30.887Z,84.96
2019-05-30T20:32:56.797Z,85.45
2019-05-30T20:35:22.898Z,85.60
2019-05-30T20:37:48.905Z,85.46
2019-05-30T20:40:15.215Z,85.30
2019-05-30T20:42:41.349Z,85.61
2019-05-30T20:45:10.069Z,85.79
2019-05-30T20:47:38.451Z,85.47
2019-05-30T20:50:06.351Z,85.26
2019-05-30T20:52:32.467Z,85.10
2019-05-30T20:54:58.503Z,84.99
2019-05-30T20:57:24.509Z,85.00
2019-05-30T20:59:50.550Z,84.90
2019-05-30T21:02:16.658Z,84.83
2019-05-30T21:04:43.010Z,85.38
2019-05-30T21:07:09.210Z,85.81
2019-05-30T21:09:37.770Z,85.94
2019-05-30T21:12:03.978Z,86.07
2019-05-30T21:14:32.127Z,86.10
2019-05-30T21:17:00.331Z,85.94
2019-05-30T21:19:26.459Z,86.21
2019-05-30T21:21:52.460Z,86.22
2019-05-30T21:24:18.502Z,86.05
2019-05-30T21:26:44.834Z,85.83
2019-05-30T21:29:10.927Z,85.74
2019-05-30T21:31:37.292Z,85.84
2019-05-30T21:34:03.746Z,86.14
2019-05-30T21:36:29.832Z,86.38
2019-05-30T21:38:55.841Z,86.31
2019-05-30T21:41:21.838Z,86.30
2019-05-30T21:43:48.931Z,86.24
2019-05-30T21:46:15.267Z,86.13
2019-05-30T21:48:41.335Z,85.87
2019-05-30T21:51:07.445Z,86.12
2019-05-30T21:53:33.550Z,86.22
2019-05-30T21:55:59.474Z,86.38
2019-05-30T21:58:25.590Z,86.76
2019-05-30T22:01:03.862Z,86.93
2019-05-30T22:03:29.776Z,86.65
2019-05-30T22:05:55.794Z,86.40
2019-05-30T22:08:21.815Z,86.69
2019-05-30T22:10:47.770Z,86.57
2019-05-30T22:13:13.855Z,86.44
2019-05-30T22:15:39.877Z,86.37
2019-05-30T22:18:05.881Z,86.64
2019-05-30T22:20:31.950Z,86.59
2019-05-30T22:22:57.955Z,86.72
2019-05-30T22:25:24.090Z,86.71
2019-05-30T22:27:50.592Z,86.65
2019-05-30T22:30:17.198Z,86.70
2019-05-30T22:32:44.542Z,86.67
2019-05-30T22:35:10.743Z,86.49
2019-05-30T22:37:36.790Z,86.67
2019-05-30T22:40:06.040Z,86.95
2019-05-30T22:42:33.961Z,87.10
2019-05-30T22:44:59.997Z,87.42
2019-05-30T22:47:25.903Z,87.14
2019-05-30T22:49:52.983Z,87.00
2019-05-30T22:52:19.205Z,87.22
2019-05-30T22:54:45.308Z,86.95
2019-05-30T22:57:11.354Z,86.75
2019-05-30T22:59:37.794Z,86.69
2019-05-30T23:02:03.950Z,86.49
2019-05-30T23:04:29.954Z,86.40
2019-05-30T23:06:56.473Z,86.00
2019-05-30T23:09:22.529Z,85.80
2019-05-30T23:11:49.456Z,85.52
2019-05-30T23:14:15.840Z,85.62
2019-05-30T23:16:41.873Z,85.94
2019-05-30T23:19:07.975Z,86.12
2019-05-30T23:21:34.329Z,86.25
2019-05-30T23:24:00.533Z,86.16
2019-05-30T23:26:26.471Z,86.28
2019-05-30T23:28:53.724Z,86.31
2019-05-30T23:31:19.959Z,85.98
2019-05-30T23:33:46.061Z,85.73
2019-05-30T23:36:12.101Z,85.92
2019-05-30T23:38:38.263Z,86.13
2019-05-30T23:41:04.378Z,86.10
2019-05-30T23:43:30.394Z,86.11
2019-05-30T23:45:57.465Z,86.14
2019-05-30T23:48:23.702Z,85.90
2019-05-30T23:50:49.815Z,85.90
2019-05-30T23:53:15.849Z,85.97
2019-05-30T23:55:41.956Z,86.07
2019-05-30T23:58:07.962Z,86.29
